createdAt,value
2023-04-15T00:01:25.375Z,17.30
2023-04-15T00:06:27.589Z,17.30
2023-04-15T00:11:29.502Z,17.30
2023-04-15T00:16:31.364Z,17.30
2023-04-15T00:21:33.297Z,17.30
2023-04-15T00:26:35.717Z,17.30
2023-04-15T00:31:37.655Z,17.30
2023-04-15T00:36:39.306Z,17.30
2023-04-15T00:41:40.878Z,17.30
2023-04-15T00:46:43.333Z,17.20
2023-04-15T00:51:45.122Z,17.20
2023-04-15T00:56:46.792Z,17.20
2023-04-15T01:01:48.774Z,17.20
2023-04-15T01:06:50.479Z,17.20
2023-04-15T01:11:52.454Z,17.20
2023-04-15T01:16:54.013Z,17.20
2023-04-15T01:21:56.494Z,17.20
2023-04-15T01:26:58.574Z,17.10
2023-04-15T01:32:00.272Z,17.20
2023-04-15T01:37:02.021Z,17.20
2023-04-15T01:42:04.195Z,17.10
2023-04-15T01:47:06.807Z,17.10
2023-04-15T01:52:09.120Z,17.10
2023-04-15T01:57:10.999Z,17.10
2023-04-15T02:02:12.769Z,17.10
2023-04-15T02:07:14.515Z,17.10
2023-04-15T02:12:16.140Z,17.10
2023-04-15T02:17:17.905Z,17.10
2023-04-15T02:22:19.828Z,17.10
2023-04-15T02:27:22.536Z,17.10
2023-04-15T02:32:25.058Z,17.00
2023-04-15T02:37:28.745Z,17.00
2023-04-15T02:42:31.982Z,17.00
2023-04-15T02:47:34.332Z,17.00
2023-04-15T02:52:36.169Z,17.00
2023-04-15T02:57:39.083Z,17.00
2023-04-15T03:02:42.281Z,16.90
2023-04-15T03:07:44.272Z,16.90
2023-04-15T03:12:46.215Z,16.90
2023-04-15T03:17:49.854Z,16.90
2023-04-15T03:22:51.507Z,16.90
2023-04-15T03:27:53.247Z,16.90
2023-04-15T03:32:55.250Z,16.90
2023-04-15T03:37:57.165Z,16.90
2023-04-15T03:42:58.863Z,16.90
2023-04-15T05:05:59.551Z,16.90
2023-04-15T05:11:01.168Z,16.90
2023-04-15T05:16:03.073Z,17.00
2023-04-15T05:21:04.961Z,17.00
2023-04-15T05:26:06.642Z,17.00
2023-04-15T05:31:08.759Z,17.00
2023-04-15T05:36:10.447Z,17.00
2023-04-15T05:41:12.312Z,17.00
2023-04-15T05:46:14.157Z,17.00
2023-04-15T05:51:16.109Z,17.00
2023-04-15T05:56:18.033Z,17.00
2023-04-15T06:01:19.670Z,17.00
2023-04-15T06:06:21.530Z,17.00
2023-04-15T06:11:23.452Z,17.00
2023-04-15T06:16:25.244Z,17.00
2023-04-15T06:21:27.171Z,17.00
2023-04-15T06:26:28.722Z,17.00
2023-04-15T06:31:30.619Z,17.00
2023-04-15T06:36:32.643Z,17.00
2023-04-15T06:41:34.437Z,17.00
2023-04-15T06:46:36.098Z,17.00
2023-04-15T06:51:37.805Z,17.00
2023-04-15T06:56:39.513Z,17.10
2023-04-15T07:01:42.105Z,17.20
2023-04-15T07:06:44.526Z,17.40
2023-04-15T07:11:46.179Z,17.40
2023-04-15T07:16:47.829Z,17.50
2023-04-15T07:21:49.513Z,17.60
2023-04-15T07:26:51.097Z,17.80
2023-04-15T07:31:52.725Z,17.90
2023-04-15T07:36:54.844Z,17.90
2023-04-15T07:41:56.618Z,18.00
2023-04-15T07:46:58.270Z,18.00
2023-04-15T07:52:00.541Z,17.90
2023-04-15T07:57:03.104Z,17.90
2023-04-15T08:02:04.851Z,17.90
2023-04-15T08:07:07.063Z,17.80
2023-04-15T08:12:12.360Z,17.80
2023-04-15T08:17:14.033Z,17.80
2023-04-15T08:22:18.200Z,17.80
2023-04-15T08:27:21.656Z,17.70
2023-04-15T08:32:23.744Z,17.70
2023-04-15T08:37:26.744Z,17.60
2023-04-15T08:42:32.684Z,17.60
2023-04-15T08:47:35.067Z,17.60
2023-04-15T08:52:36.924Z,17.60
2023-04-15T08:57:39.788Z,17.60
2023-04-15T09:02:41.594Z,17.50
2023-04-15T09:07:43.443Z,17.50
2023-04-15T09:12:45.113Z,17.50
2023-04-15T09:17:47.853Z,17.50
2023-04-15T09:22:50.480Z,17.50
2023-04-15T09:27:53.169Z,17.60
2023-04-15T09:32:58.917Z,17.60
2023-04-15T09:38:03.065Z,17.60
2023-04-15T09:43:05.371Z,17.70
2023-04-15T09:48:22.950Z,17.70
2023-04-15T09:53:25.399Z,17.70
2023-04-15T09:58:28.266Z,17.70
2023-04-15T10:03:31.669Z,17.70
2023-04-15T10:08:34.687Z,17.70
2023-04-15T10:13:37.321Z,17.70
2023-04-15T10:18:41.164Z,17.80
2023-04-15T10:23:42.959Z,17.80
2023-04-15T10:28:45.015Z,17.80
2023-04-15T10:33:47.628Z,17.90
2023-04-15T10:38:49.265Z,17.90
2023-04-15T10:43:54.950Z,17.90
2023-04-15T10:48:57.688Z,17.90
2023-04-15T10:53:59.796Z,17.90
2023-04-15T10:59:02.036Z,17.90
2023-04-15T11:04:03.906Z,17.90
2023-04-15T11:09:09.549Z,17.90
2023-04-15T11:14:15.228Z,18.00
2023-04-15T11:19:17.634Z,18.10
2023-04-15T11:24:28.384Z,18.20
2023-04-15T11:29:31.969Z,18.20
2023-04-15T11:34:35.590Z,18.30
2023-04-15T11:39:37.748Z,18.30
2023-04-15T11:44:39.365Z,18.30
2023-04-15T11:49:41.543Z,18.30
2023-04-15T11:54:43.340Z,18.30
2023-04-15T11:59:46.299Z,18.30
2023-04-15T12:04:48.170Z,18.40
2023-04-15T12:09:55.042Z,18.40
2023-04-15T12:14:57.055Z,18.30
2023-04-15T12:19:58.629Z,18.20
2023-04-15T12:25:02.621Z,18.20
2023-04-15T12:30:05.282Z,18.10
2023-04-15T12:35:07.241Z,18.10
2023-04-15T12:40:09.395Z,18.00
2023-04-15T12:45:11.240Z,18.00
2023-04-15T12:50:12.995Z,18.00
2023-04-15T12:55:14.603Z,17.90
2023-04-15T13:00:16.228Z,17.90
2023-04-15T13:05:17.933Z,17.90
2023-04-15T13:10:19.554Z,17.80
2023-04-15T13:15:22.691Z,17.80
2023-04-15T13:20:25.845Z,17.80
2023-04-15T13:25:28.073Z,17.70
2023-04-15T13:30:29.658Z,17.70
2023-04-15T13:35:32.082Z,17.70
2023-04-15T13:40:33.760Z,17.70
2023-04-15T13:45:35.432Z,17.70
2023-04-15T13:50:37.151Z,17.70
2023-04-15T13:55:41.749Z,17.70
2023-04-15T14:00:43.314Z,17.70
2023-04-15T14:05:45.320Z,17.70
2023-04-15T14:10:48.441Z,17.70
2023-04-15T14:15:50.076Z,17.70
2023-04-15T14:20:51.813Z,17.70
2023-04-15T14:25:53.974Z,17.70
2023-04-15T14:30:55.650Z,17.70
2023-04-15T14:35:57.411Z,17.70
2023-04-15T14:40:59.039Z,17.70
2023-04-15T14:46:00.872Z,17.80
2023-04-15T14:51:02.573Z,17.80
2023-04-15T14:56:04.387Z,17.80
2023-04-15T15:01:06.442Z,17.80
2023-04-15T15:06:08.906Z,17.80
2023-04-15T15:11:10.675Z,17.80
2023-04-15T15:16:14.430Z,17.80
2023-04-15T15:21:16.454Z,17.90
2023-04-15T15:26:19.260Z,17.90
2023-04-15T15:31:21.023Z,17.90
2023-04-15T15:36:22.872Z,17.90
2023-04-15T15:41:25.910Z,17.90
2023-04-15T15:46:28.384Z,18.10
2023-04-15T15:51:30.262Z,18.10
2023-04-15T15:56:31.924Z,18.10
2023-04-15T16:01:33.603Z,18.10
2023-04-15T16:06:35.451Z,18.10
2023-04-15T16:11:37.124Z,18.10
2023-04-15T16:16:38.962Z,18.10
2023-04-15T16:21:40.798Z,18.10
2023-04-15T16:26:42.451Z,18.10
2023-04-15T16:31:44.157Z,18.10
2023-04-15T16:36:45.825Z,18.20
2023-04-15T16:41:47.495Z,18.30
2023-04-15T16:46:49.274Z,18.30
2023-04-15T16:51:52.009Z,18.50
2023-04-15T16:56:54.835Z,18.50
2023-04-15T17:01:56.663Z,18.50
2023-04-15T17:06:58.562Z,18.50
2023-04-15T17:12:01.140Z,18.40
2023-04-15T17:17:02.876Z,18.40
2023-04-15T17:22:04.701Z,18.40
2023-04-15T17:27:06.765Z,18.30
2023-04-15T17:32:08.439Z,18.30
2023-04-15T17:37:10.101Z,18.30
2023-04-15T17:42:11.729Z,18.30
2023-04-15T17:47:13.397Z,18.20
2023-04-15T17:52:15.005Z,18.20
2023-04-15T17:57:16.735Z,18.10
2023-04-15T18:02:18.553Z,18.10
2023-04-15T18:07:20.293Z,18.20
2023-04-15T18:12:21.862Z,18.30
2023-04-15T18:17:24.008Z,18.40
2023-04-15T18:22:25.756Z,18.50
2023-04-15T18:27:27.485Z,18.50
2023-04-15T18:32:31.932Z,18.60
2023-04-15T18:37:33.714Z,18.50
2023-04-15T18:42:35.297Z,18.50
2023-04-15T18:47:36.935Z,18.50
2023-04-15T18:52:38.590Z,18.40
2023-04-15T18:57:42.551Z,18.40
2023-04-15T19:02:46.176Z,18.30
2023-04-15T19:07:47.929Z,18.30
2023-04-15T19:12:49.498Z,18.40
2023-04-15T19:17:51.266Z,18.30
2023-04-15T19:22:54.840Z,18.30
2023-04-15T19:27:57.896Z,18.30
2023-04-15T19:33:00.708Z,18.30
2023-04-15T19:38:04.716Z,18.30
2023-04-15T19:43:06.443Z,18.30
2023-04-15T19:48:08.042Z,18.20
2023-04-15T19:53:09.913Z,18.20
2023-04-15T19:58:11.719Z,18.20
2023-04-15T20:03:13.480Z,18.20
2023-04-15T20:08:15.387Z,18.20
2023-04-15T20:13:16.975Z,18.20
2023-04-15T20:18:18.574Z,18.20
2023-04-15T20:23:20.216Z,18.10
2023-04-15T20:28:23.670Z,18.10
2023-04-15T20:33:27.119Z,18.20
2023-04-15T20:38:28.922Z,18.10
2023-04-15T20:43:30.639Z,18.10
2023-04-15T20:48:32.205Z,18.10
2023-04-15T20:53:33.870Z,18.10
2023-04-15T20:58:35.510Z,18.00
2023-04-15T21:03:37.404Z,18.00
2023-04-15T21:08:39.103Z,18.00
2023-04-15T21:13:40.675Z,18.00
2023-04-15T21:18:42.439Z,17.90
2023-04-15T21:23:44.104Z,17.90
2023-04-15T21:28:45.882Z,17.80
2023-04-15T21:33:47.497Z,17.80
2023-04-15T21:38:49.132Z,17.80
2023-04-15T21:43:50.939Z,17.80
2023-04-15T21:48:53.863Z,17.70
2023-04-15T21:53:56.033Z,17.70
2023-04-15T21:58:57.805Z,17.70
2023-04-15T22:03:59.535Z,17.60
2023-04-15T22:09:01.514Z,17.60
2023-04-15T22:14:03.219Z,17.60
2023-04-15T22:19:04.862Z,17.50
2023-04-15T22:24:32.544Z,17.50
2023-04-15T22:29:29.026Z,17.50
2023-04-15T22:34:30.735Z,17.50
2023-04-15T22:39:32.308Z,17.50
2023-04-15T22:44:33.883Z,17.50
2023-04-15T22:49:36.357Z,17.40
2023-04-15T22:54:37.982Z,17.40
2023-04-15T22:59:39.556Z,17.40
2023-04-15T23:04:41.442Z,17.40
2023-04-15T23:09:43.211Z,17.40
2023-04-15T23:14:44.839Z,17.30
2023-04-15T23:19:46.530Z,17.30
2023-04-15T23:24:48.188Z,17.30
2023-04-15T23:29:49.923Z,17.30
2023-04-15T23:34:52.371Z,17.30
2023-04-15T23:39:55.715Z,17.30
2023-04-15T23:44:57.341Z,17.30
2023-04-15T23:49:58.907Z,17.20
2023-04-15T23:55:00.489Z,17.20
